Robert S. Kerr Airport

About
Name: Robert S. Kerr Airport
Identifier:  RKR/KRKR
Local Time:  22. Aug 23:21 CDT
Location
Flights per Day
0 flights
Distance: 364km (226mi)
Punctuality
50% (0 flights per day delayed)
Delay Average: 38 minutes
Current Weather
 22 C (Humidity: 100%)
  6kt (11km/h / 6mph) from 90°
  Broken clouds at 2,000 feet (609 meter)
  Broken clouds at 2,800 feet (853 meter)
  Overcast at 4,800 feet (1,463 meter)
  0km (0 mi.)
 Strong: Thunderstorm Rain
 METAR KRKR 230235Z AUTO 09006KT 1 3/4SM +TSRA BKN020 BKN028 OVC048 22/22 A2993 RMK AO2 P0029 LTG DSNT ALQS

Current Flights

Departures
Number Departure To Airline
Arrivals
Number Arrival From Airline

Current Delays

Departures
N/A
Arrivals
N/A

Destinations

Top Destinations
Airport Flights
per week
Seats
per week
  Houston (IWS) 0 - 0 0
  Stillwater (SWO) 0 - 0 0
  Kansas City (MCI) 0 - 0 0

Airlines & Planes

Top Airlines
Airline Flights
per Day
Seats
per Day
  National Airlines 0 -
  Nolinor Aviation 0 -
Top Plane Types
Model Flights Seats
Beech E55 Baron 0.1/day - 0
Piper PA28-181 0.0/day - 0